sensor_id;sensor_type;location;lat;lon;timestamp;P1;durP1;ratioP1;P2;durP2;ratioP2
24084;SDS011;12268;52.110;5.548;2023-04-15T00:00:10;12.07;;;7.25;;
24084;SDS011;12268;52.110;5.548;2023-04-15T00:02:36;12.07;;;6.93;;
24084;SDS011;12268;52.110;5.548;2023-04-15T00:05:01;13.73;;;7.43;;
24084;SDS011;12268;52.110;5.548;2023-04-15T00:07:27;13.23;;;6.85;;
24084;SDS011;12268;52.110;5.548;2023-04-15T00:09:53;14.65;;;7.40;;
24084;SDS011;12268;52.110;5.548;2023-04-15T00:12:21;13.35;;;6.78;;
24084;SDS011;12268;52.110;5.548;2023-04-15T00:14:47;14.15;;;7.13;;
24084;SDS011;12268;52.110;5.548;2023-04-15T00:17:14;12.50;;;6.63;;
24084;SDS011;12268;52.110;5.548;2023-04-15T00:19:39;15.23;;;7.68;;
24084;SDS011;12268;52.110;5.548;2023-04-15T00:22:05;13.55;;;6.90;;
24084;SDS011;12268;52.110;5.548;2023-04-15T00:24:32;13.73;;;7.25;;
24084;SDS011;12268;52.110;5.548;2023-04-15T00:26:58;12.38;;;7.00;;
24084;SDS011;12268;52.110;5.548;2023-04-15T00:29:23;10.93;;;6.53;;
24084;SDS011;12268;52.110;5.548;2023-04-15T00:31:49;14.55;;;6.70;;
24084;SDS011;12268;52.110;5.548;2023-04-15T00:34:15;11.13;;;6.28;;
24084;SDS011;12268;52.110;5.548;2023-04-15T00:36:41;12.93;;;6.95;;
24084;SDS011;12268;52.110;5.548;2023-04-15T00:39:07;12.88;;;6.57;;
24084;SDS011;12268;52.110;5.548;2023-04-15T00:41:32;13.18;;;6.78;;
24084;SDS011;12268;52.110;5.548;2023-04-15T00:43:58;10.98;;;6.45;;
24084;SDS011;12268;52.110;5.548;2023-04-15T00:46:27;12.02;;;6.63;;
24084;SDS011;12268;52.110;5.548;2023-04-15T00:48:54;11.50;;;6.30;;
24084;SDS011;12268;52.110;5.548;2023-04-15T00:51:20;9.18;;;6.20;;
24084;SDS011;12268;52.110;5.548;2023-04-15T00:53:46;10.85;;;6.90;;
24084;SDS011;12268;52.110;5.548;2023-04-15T00:56:11;11.07;;;6.80;;
24084;SDS011;12268;52.110;5.548;2023-04-15T00:58:38;11.63;;;6.45;;
24084;SDS011;12268;52.110;5.548;2023-04-15T01:01:03;12.02;;;6.35;;
24084;SDS011;12268;52.110;5.548;2023-04-15T01:03:29;9.70;;;6.15;;
24084;SDS011;12268;52.110;5.548;2023-04-15T01:05:55;13.50;;;6.65;;
24084;SDS011;12268;52.110;5.548;2023-04-15T01:08:29;13.50;;;7.00;;
24084;SDS011;12268;52.110;5.548;2023-04-15T01:10:55;13.23;;;6.88;;
24084;SDS011;12268;52.110;5.548;2023-04-15T01:13:23;14.45;;;6.47;;
24084;SDS011;12268;52.110;5.548;2023-04-15T01:15:50;11.80;;;6.55;;
24084;SDS011;12268;52.110;5.548;2023-04-15T01:18:16;11.02;;;6.43;;
24084;SDS011;12268;52.110;5.548;2023-04-15T01:20:42;12.80;;;6.43;;
24084;SDS011;12268;52.110;5.548;2023-04-15T01:23:08;9.85;;;6.45;;
24084;SDS011;12268;52.110;5.548;2023-04-15T01:25:34;9.82;;;6.80;;
24084;SDS011;12268;52.110;5.548;2023-04-15T01:27:59;10.05;;;6.32;;
24084;SDS011;12268;52.110;5.548;2023-04-15T01:30:25;11.90;;;6.70;;
24084;SDS011;12268;52.110;5.548;2023-04-15T01:32:51;10.43;;;6.35;;
24084;SDS011;12268;52.110;5.548;2023-04-15T01:35:17;10.15;;;6.38;;
24084;SDS011;12268;52.110;5.548;2023-04-15T01:37:43;9.77;;;6.80;;
24084;SDS011;12268;52.110;5.548;2023-04-15T01:40:09;11.85;;;6.82;;
24084;SDS011;12268;52.110;5.548;2023-04-15T01:42:35;12.40;;;7.55;;
24084;SDS011;12268;52.110;5.548;2023-04-15T01:45:01;13.00;;;6.88;;
24084;SDS011;12268;52.110;5.548;2023-04-15T01:47:27;12.25;;;6.97;;
24084;SDS011;12268;52.110;5.548;2023-04-15T01:49:52;9.73;;;6.25;;
24084;SDS011;12268;52.110;5.548;2023-04-15T01:52:18;12.50;;;6.93;;
24084;SDS011;12268;52.110;5.548;2023-04-15T01:54:44;12.15;;;6.63;;
24084;SDS011;12268;52.110;5.548;2023-04-15T01:57:09;11.38;;;6.20;;
24084;SDS011;12268;52.110;5.548;2023-04-15T01:59:35;10.73;;;6.00;;
24084;SDS011;12268;52.110;5.548;2023-04-15T02:02:01;17.77;;;5.97;;
24084;SDS011;12268;52.110;5.548;2023-04-15T02:04:26;11.70;;;6.43;;
24084;SDS011;12268;52.110;5.548;2023-04-15T02:06:52;12.13;;;6.60;;
24084;SDS011;12268;52.110;5.548;2023-04-15T02:09:18;10.82;;;5.78;;
24084;SDS011;12268;52.110;5.548;2023-04-15T02:11:44;12.55;;;6.68;;
24084;SDS011;12268;52.110;5.548;2023-04-15T02:14:09;11.60;;;6.10;;
24084;SDS011;12268;52.110;5.548;2023-04-15T02:16:35;10.50;;;6.10;;
24084;SDS011;12268;52.110;5.548;2023-04-15T02:19:00;12.25;;;6.50;;
24084;SDS011;12268;52.110;5.548;2023-04-15T02:21:27;9.57;;;6.15;;
24084;SDS011;12268;52.110;5.548;2023-04-15T02:23:52;10.98;;;6.43;;
24084;SDS011;12268;52.110;5.548;2023-04-15T02:26:18;11.07;;;5.93;;
24084;SDS011;12268;52.110;5.548;2023-04-15T02:28:45;11.45;;;6.15;;
24084;SDS011;12268;52.110;5.548;2023-04-15T02:31:11;11.15;;;6.20;;
24084;SDS011;12268;52.110;5.548;2023-04-15T02:33:37;10.05;;;6.05;;
24084;SDS011;12268;52.110;5.548;2023-04-15T02:36:03;12.45;;;6.28;;
24084;SDS011;12268;52.110;5.548;2023-04-15T02:38:28;10.80;;;6.68;;
24084;SDS011;12268;52.110;5.548;2023-04-15T02:40:55;12.80;;;6.63;;
24084;SDS011;12268;52.110;5.548;2023-04-15T02:43:21;13.15;;;6.22;;
24084;SDS011;12268;52.110;5.548;2023-04-15T02:45:47;13.55;;;6.88;;
24084;SDS011;12268;52.110;5.548;2023-04-15T02:48:12;11.57;;;6.43;;
24084;SDS011;12268;52.110;5.548;2023-04-15T02:50:38;10.40;;;6.35;;
24084;SDS011;12268;52.110;5.548;2023-04-15T02:53:04;11.65;;;6.70;;
24084;SDS011;12268;52.110;5.548;2023-04-15T02:55:30;11.27;;;5.90;;
24084;SDS011;12268;52.110;5.548;2023-04-15T02:57:56;12.82;;;7.22;;
24084;SDS011;12268;52.110;5.548;2023-04-15T03:00:25;14.38;;;6.72;;
24084;SDS011;12268;52.110;5.548;2023-04-15T03:02:51;12.52;;;6.28;;
24084;SDS011;12268;52.110;5.548;2023-04-15T03:05:26;11.52;;;6.90;;
24084;SDS011;12268;52.110;5.548;2023-04-15T03:07:52;16.27;;;6.93;;
24084;SDS011;12268;52.110;5.548;2023-04-15T03:10:18;9.68;;;6.07;;
24084;SDS011;12268;52.110;5.548;2023-04-15T03:12:44;13.27;;;6.28;;
24084;SDS011;12268;52.110;5.548;2023-04-15T03:15:10;12.00;;;6.15;;
24084;SDS011;12268;52.110;5.548;2023-04-15T03:17:35;10.32;;;6.25;;
24084;SDS011;12268;52.110;5.548;2023-04-15T03:20:01;11.77;;;6.78;;
24084;SDS011;12268;52.110;5.548;2023-04-15T03:22:30;11.32;;;6.10;;
24084;SDS011;12268;52.110;5.548;2023-04-15T03:24:56;14.48;;;6.65;;
24084;SDS011;12268;52.110;5.548;2023-04-15T03:27:22;14.60;;;6.20;;
24084;SDS011;12268;52.110;5.548;2023-04-15T03:29:48;12.93;;;6.93;;
24084;SDS011;12268;52.110;5.548;2023-04-15T03:32:13;16.67;;;7.00;;
24084;SDS011;12268;52.110;5.548;2023-04-15T03:34:39;11.13;;;6.50;;
24084;SDS011;12268;52.110;5.548;2023-04-15T03:37:06;10.35;;;6.07;;
24084;SDS011;12268;52.110;5.548;2023-04-15T03:39:31;12.68;;;7.15;;
24084;SDS011;12268;52.110;5.548;2023-04-15T03:41:57;13.85;;;6.72;;
24084;SDS011;12268;52.110;5.548;2023-04-15T03:44:23;10.68;;;6.20;;
24084;SDS011;12268;52.110;5.548;2023-04-15T03:46:50;12.52;;;6.97;;
24084;SDS011;12268;52.110;5.548;2023-04-15T03:49:15;13.52;;;7.40;;
24084;SDS011;12268;52.110;5.548;2023-04-15T03:51:41;13.40;;;7.43;;
24084;SDS011;12268;52.110;5.548;2023-04-15T03:54:07;16.25;;;7.38;;
24084;SDS011;12268;52.110;5.548;2023-04-15T03:56:32;12.60;;;7.05;;
24084;SDS011;12268;52.110;5.548;2023-04-15T03:58:58;12.55;;;6.95;;
24084;SDS011;12268;52.110;5.548;2023-04-15T04:01:23;12.98;;;7.78;;
24084;SDS011;12268;52.110;5.548;2023-04-15T04:03:49;16.98;;;7.57;;
24084;SDS011;12268;52.110;5.548;2023-04-15T04:06:14;14.05;;;7.30;;
24084;SDS011;12268;52.110;5.548;2023-04-15T04:08:40;14.20;;;7.50;;
24084;SDS011;12268;52.110;5.548;2023-04-15T04:11:06;17.10;;;7.97;;
24084;SDS011;12268;52.110;5.548;2023-04-15T04:13:32;13.13;;;7.30;;
24084;SDS011;12268;52.110;5.548;2023-04-15T04:15:57;12.35;;;7.13;;
24084;SDS011;12268;52.110;5.548;2023-04-15T04:18:23;14.18;;;7.88;;
24084;SDS011;12268;52.110;5.548;2023-04-15T04:20:48;13.35;;;7.68;;
24084;SDS011;12268;52.110;5.548;2023-04-15T04:23:14;13.68;;;7.50;;
24084;SDS011;12268;52.110;5.548;2023-04-15T04:25:39;13.80;;;7.25;;
24084;SDS011;12268;52.110;5.548;2023-04-15T04:28:05;13.25;;;7.43;;
24084;SDS011;12268;52.110;5.548;2023-04-15T04:30:31;14.57;;;8.35;;
24084;SDS011;12268;52.110;5.548;2023-04-15T04:32:56;11.68;;;7.32;;
24084;SDS011;12268;52.110;5.548;2023-04-15T04:35:22;12.68;;;7.07;;
24084;SDS011;12268;52.110;5.548;2023-04-15T04:37:48;14.05;;;7.82;;
24084;SDS011;12268;52.110;5.548;2023-04-15T04:40:13;16.95;;;7.70;;
24084;SDS011;12268;52.110;5.548;2023-04-15T04:42:39;14.45;;;7.32;;
24084;SDS011;12268;52.110;5.548;2023-04-15T04:45:05;15.70;;;8.13;;
24084;SDS011;12268;52.110;5.548;2023-04-15T04:47:31;12.63;;;7.47;;
24084;SDS011;12268;52.110;5.548;2023-04-15T04:49:56;17.52;;;8.02;;
24084;SDS011;12268;52.110;5.548;2023-04-15T04:52:22;14.23;;;8.43;;
24084;SDS011;12268;52.110;5.548;2023-04-15T04:54:47;12.32;;;7.35;;
24084;SDS011;12268;52.110;5.548;2023-04-15T04:57:13;13.77;;;8.38;;
24084;SDS011;12268;52.110;5.548;2023-04-15T04:59:39;14.80;;;7.95;;
24084;SDS011;12268;52.110;5.548;2023-04-15T05:02:04;14.52;;;8.00;;
24084;SDS011;12268;52.110;5.548;2023-04-15T05:04:31;12.18;;;7.30;;
24084;SDS011;12268;52.110;5.548;2023-04-15T05:06:57;16.30;;;8.45;;
24084;SDS011;12268;52.110;5.548;2023-04-15T05:09:23;13.93;;;7.65;;
24084;SDS011;12268;52.110;5.548;2023-04-15T05:11:49;15.48;;;8.15;;
24084;SDS011;12268;52.110;5.548;2023-04-15T05:14:14;14.07;;;7.53;;
24084;SDS011;12268;52.110;5.548;2023-04-15T05:16:40;17.02;;;8.25;;
24084;SDS011;12268;52.110;5.548;2023-04-15T05:19:06;17.38;;;9.38;;
24084;SDS011;12268;52.110;5.548;2023-04-15T05:21:31;16.40;;;9.68;;
24084;SDS011;12268;52.110;5.548;2023-04-15T05:23:57;20.67;;;8.82;;
24084;SDS011;12268;52.110;5.548;2023-04-15T05:26:23;17.13;;;9.35;;
24084;SDS011;12268;52.110;5.548;2023-04-15T05:28:48;16.65;;;9.35;;
24084;SDS011;12268;52.110;5.548;2023-04-15T05:31:14;12.93;;;7.82;;
24084;SDS011;12268;52.110;5.548;2023-04-15T05:33:40;13.27;;;7.75;;
24084;SDS011;12268;52.110;5.548;2023-04-15T05:36:05;13.77;;;7.90;;
24084;SDS011;12268;52.110;5.548;2023-04-15T05:38:31;16.05;;;9.00;;
24084;SDS011;12268;52.110;5.548;2023-04-15T05:40:57;13.73;;;8.15;;
24084;SDS011;12268;52.110;5.548;2023-04-15T05:43:22;12.52;;;7.90;;
24084;SDS011;12268;52.110;5.548;2023-04-15T05:45:48;15.20;;;8.32;;
24084;SDS011;12268;52.110;5.548;2023-04-15T05:48:13;14.23;;;7.68;;
24084;SDS011;12268;52.110;5.548;2023-04-15T05:50:40;16.70;;;8.25;;
24084;SDS011;12268;52.110;5.548;2023-04-15T05:53:06;14.30;;;7.40;;
24084;SDS011;12268;52.110;5.548;2023-04-15T05:55:32;12.77;;;7.07;;
24084;SDS011;12268;52.110;5.548;2023-04-15T05:57:57;13.77;;;8.00;;
24084;SDS011;12268;52.110;5.548;2023-04-15T06:00:23;13.15;;;7.75;;
24084;SDS011;12268;52.110;5.548;2023-04-15T06:02:49;13.65;;;7.93;;
24084;SDS011;12268;52.110;5.548;2023-04-15T06:05:14;15.18;;;8.80;;
24084;SDS011;12268;52.110;5.548;2023-04-15T06:07:40;15.70;;;8.15;;
24084;SDS011;12268;52.110;5.548;2023-04-15T06:10:07;14.90;;;9.02;;
24084;SDS011;12268;52.110;5.548;2023-04-15T06:12:33;16.10;;;8.52;;
24084;SDS011;12268;52.110;5.548;2023-04-15T06:15:00;13.88;;;8.38;;
24084;SDS011;12268;52.110;5.548;2023-04-15T06:17:25;14.90;;;8.40;;
24084;SDS011;12268;52.110;5.548;2023-04-15T06:19:51;15.02;;;8.68;;
24084;SDS011;12268;52.110;5.548;2023-04-15T06:22:20;14.73;;;9.18;;
24084;SDS011;12268;52.110;5.548;2023-04-15T06:24:47;14.85;;;9.25;;
24084;SDS011;12268;52.110;5.548;2023-04-15T06:27:14;15.20;;;8.93;;
24084;SDS011;12268;52.110;5.548;2023-04-15T06:29:40;13.43;;;8.30;;
24084;SDS011;12268;52.110;5.548;2023-04-15T06:32:05;13.68;;;8.48;;
24084;SDS011;12268;52.110;5.548;2023-04-15T06:34:31;15.63;;;9.35;;
24084;SDS011;12268;52.110;5.548;2023-04-15T06:36:57;14.98;;;8.50;;
24084;SDS011;12268;52.110;5.548;2023-04-15T06:39:22;15.27;;;8.90;;
24084;SDS011;12268;52.110;5.548;2023-04-15T06:41:48;14.20;;;8.32;;
24084;SDS011;12268;52.110;5.548;2023-04-15T06:44:14;14.77;;;8.80;;
24084;SDS011;12268;52.110;5.548;2023-04-15T06:46:40;12.02;;;7.68;;
24084;SDS011;12268;52.110;5.548;2023-04-15T06:49:05;16.35;;;7.65;;
24084;SDS011;12268;52.110;5.548;2023-04-15T06:51:33;14.15;;;8.38;;
24084;SDS011;12268;52.110;5.548;2023-04-15T06:53:59;16.27;;;8.52;;
24084;SDS011;12268;52.110;5.548;2023-04-15T06:56:26;13.88;;;8.55;;
24084;SDS011;12268;52.110;5.548;2023-04-15T06:58:52;15.77;;;8.85;;
24084;SDS011;12268;52.110;5.548;2023-04-15T07:01:17;11.82;;;8.43;;
24084;SDS011;12268;52.110;5.548;2023-04-15T07:03:43;12.10;;;8.35;;
24084;SDS011;12268;52.110;5.548;2023-04-15T07:06:09;16.60;;;9.30;;
24084;SDS011;12268;52.110;5.548;2023-04-15T07:08:34;13.05;;;8.38;;
24084;SDS011;12268;52.110;5.548;2023-04-15T07:11:00;15.38;;;8.70;;
24084;SDS011;12268;52.110;5.548;2023-04-15T07:13:26;13.05;;;8.50;;
24084;SDS011;12268;52.110;5.548;2023-04-15T07:15:52;13.45;;;8.52;;
24084;SDS011;12268;52.110;5.548;2023-04-15T07:18:17;16.88;;;8.93;;
24084;SDS011;12268;52.110;5.548;2023-04-15T07:20:43;20.85;;;9.40;;
24084;SDS011;12268;52.110;5.548;2023-04-15T07:23:08;13.25;;;7.90;;
24084;SDS011;12268;52.110;5.548;2023-04-15T07:25:34;14.88;;;8.23;;
24084;SDS011;12268;52.110;5.548;2023-04-15T07:27:59;13.95;;;8.30;;
24084;SDS011;12268;52.110;5.548;2023-04-15T07:30:26;16.42;;;7.47;;
24084;SDS011;12268;52.110;5.548;2023-04-15T07:32:52;13.80;;;8.32;;
24084;SDS011;12268;52.110;5.548;2023-04-15T07:35:18;13.02;;;7.93;;
24084;SDS011;12268;52.110;5.548;2023-04-15T07:37:45;12.32;;;7.10;;
24084;SDS011;12268;52.110;5.548;2023-04-15T07:40:11;13.13;;;7.50;;
24084;SDS011;12268;52.110;5.548;2023-04-15T07:42:38;11.60;;;6.78;;
24084;SDS011;12268;52.110;5.548;2023-04-15T07:45:04;13.50;;;6.82;;
24084;SDS011;12268;52.110;5.548;2023-04-15T07:47:30;12.07;;;7.13;;
24084;SDS011;12268;52.110;5.548;2023-04-15T07:49:56;8.27;;;5.18;;
24084;SDS011;12268;52.110;5.548;2023-04-15T07:52:21;10.15;;;5.88;;
24084;SDS011;12268;52.110;5.548;2023-04-15T07:54:47;8.90;;;5.63;;
24084;SDS011;12268;52.110;5.548;2023-04-15T07:57:12;8.77;;;5.70;;
24084;SDS011;12268;52.110;5.548;2023-04-15T07:59:38;12.02;;;7.05;;
24084;SDS011;12268;52.110;5.548;2023-04-15T08:02:04;9.18;;;6.20;;
24084;SDS011;12268;52.110;5.548;2023-04-15T08:04:29;9.30;;;6.38;;
24084;SDS011;12268;52.110;5.548;2023-04-15T08:06:55;11.30;;;6.13;;
24084;SDS011;12268;52.110;5.548;2023-04-15T08:09:20;11.30;;;6.55;;
24084;SDS011;12268;52.110;5.548;2023-04-15T08:11:47;11.75;;;6.97;;
24084;SDS011;12268;52.110;5.548;2023-04-15T08:14:13;10.65;;;6.47;;
24084;SDS011;12268;52.110;5.548;2023-04-15T08:16:39;8.75;;;5.78;;
24084;SDS011;12268;52.110;5.548;2023-04-15T08:19:05;10.05;;;5.07;;
24084;SDS011;12268;52.110;5.548;2023-04-15T08:21:31;10.18;;;5.47;;
24084;SDS011;12268;52.110;5.548;2023-04-15T08:23:56;11.32;;;5.68;;
24084;SDS011;12268;52.110;5.548;2023-04-15T08:26:22;8.18;;;5.35;;
24084;SDS011;12268;52.110;5.548;2023-04-15T08:28:48;10.90;;;5.53;;
24084;SDS011;12268;52.110;5.548;2023-04-15T08:31:14;10.13;;;4.80;;
24084;SDS011;12268;52.110;5.548;2023-04-15T08:33:40;9.18;;;5.30;;
24084;SDS011;12268;52.110;5.548;2023-04-15T08:36:06;9.13;;;4.55;;
24084;SDS011;12268;52.110;5.548;2023-04-15T08:38:32;11.05;;;4.97;;
24084;SDS011;12268;52.110;5.548;2023-04-15T08:40:59;13.35;;;5.28;;
24084;SDS011;12268;52.110;5.548;2023-04-15T08:43:27;7.03;;;4.70;;
24084;SDS011;12268;52.110;5.548;2023-04-15T08:45:58;6.10;;;3.95;;
24084;SDS011;12268;52.110;5.548;2023-04-15T08:48:29;6.13;;;4.30;;
24084;SDS011;12268;52.110;5.548;2023-04-15T08:50:58;11.70;;;4.50;;
24084;SDS011;12268;52.110;5.548;2023-04-15T08:53:24;7.07;;;4.28;;
24084;SDS011;12268;52.110;5.548;2023-04-15T08:55:51;7.35;;;3.95;;
24084;SDS011;12268;52.110;5.548;2023-04-15T08:58:18;8.40;;;4.18;;
24084;SDS011;12268;52.110;5.548;2023-04-15T09:00:43;9.93;;;4.13;;
24084;SDS011;12268;52.110;5.548;2023-04-15T09:03:09;6.20;;;4.28;;
24084;SDS011;12268;52.110;5.548;2023-04-15T09:05:36;6.10;;;3.70;;
24084;SDS011;12268;52.110;5.548;2023-04-15T09:08:02;6.22;;;4.03;;
24084;SDS011;12268;52.110;5.548;2023-04-15T09:10:29;6.57;;;4.05;;
24084;SDS011;12268;52.110;5.548;2023-04-15T09:12:55;9.02;;;4.25;;
24084;SDS011;12268;52.110;5.548;2023-04-15T09:15:21;11.70;;;4.43;;
24084;SDS011;12268;52.110;5.548;2023-04-15T09:17:49;8.98;;;5.05;;
24084;SDS011;12268;52.110;5.548;2023-04-15T09:20:15;9.43;;;4.22;;
24084;SDS011;12268;52.110;5.548;2023-04-15T09:22:44;7.20;;;4.43;;
24084;SDS011;12268;52.110;5.548;2023-04-15T09:27:52;7.20;;;4.30;;
24084;SDS011;12268;52.110;5.548;2023-04-15T09:30:19;8.00;;;4.88;;
24084;SDS011;12268;52.110;5.548;2023-04-15T09:32:49;7.45;;;4.88;;
24084;SDS011;12268;52.110;5.548;2023-04-15T09:35:18;8.50;;;4.90;;
24084;SDS011;12268;52.110;5.548;2023-04-15T09:37:45;11.48;;;5.15;;
24084;SDS011;12268;52.110;5.548;2023-04-15T09:40:10;8.40;;;5.40;;
24084;SDS011;12268;52.110;5.548;2023-04-15T09:42:36;7.90;;;4.75;;
24084;SDS011;12268;52.110;5.548;2023-04-15T09:45:19;6.85;;;4.78;;
24084;SDS011;12268;52.110;5.548;2023-04-15T09:47:45;6.85;;;4.70;;
24084;SDS011;12268;52.110;5.548;2023-04-15T09:50:10;7.22;;;3.33;;
24084;SDS011;12268;52.110;5.548;2023-04-15T09:52:40;5.32;;;3.00;;
24084;SDS011;12268;52.110;5.548;2023-04-15T09:55:10;4.03;;;2.00;;
24084;SDS011;12268;52.110;5.548;2023-04-15T09:57:37;3.40;;;1.77;;
24084;SDS011;12268;52.110;5.548;2023-04-15T10:00:03;3.53;;;2.13;;
24084;SDS011;12268;52.110;5.548;2023-04-15T10:02:30;4.05;;;2.60;;
24084;SDS011;12268;52.110;5.548;2023-04-15T10:04:56;3.97;;;2.33;;
24084;SDS011;12268;52.110;5.548;2023-04-15T10:07:22;4.10;;;2.55;;
24084;SDS011;12268;52.110;5.548;2023-04-15T10:09:49;4.63;;;2.78;;
24084;SDS011;12268;52.110;5.548;2023-04-15T10:12:18;5.53;;;2.78;;
24084;SDS011;12268;52.110;5.548;2023-04-15T10:14:47;5.53;;;2.65;;
24084;SDS011;12268;52.110;5.548;2023-04-15T10:17:16;7.40;;;3.50;;
24084;SDS011;12268;52.110;5.548;2023-04-15T10:19:42;6.95;;;3.45;;
24084;SDS011;12268;52.110;5.548;2023-04-15T10:22:08;7.55;;;4.70;;
24084;SDS011;12268;52.110;5.548;2023-04-15T10:24:34;7.38;;;4.55;;
24084;SDS011;12268;52.110;5.548;2023-04-15T10:27:02;8.82;;;4.22;;
24084;SDS011;12268;52.110;5.548;2023-04-15T10:29:29;6.28;;;3.97;;
24084;SDS011;12268;52.110;5.548;2023-04-15T10:31:55;9.25;;;4.03;;
24084;SDS011;12268;52.110;5.548;2023-04-15T10:34:22;9.00;;;4.18;;
24084;SDS011;12268;52.110;5.548;2023-04-15T10:36:49;7.28;;;3.80;;
24084;SDS011;12268;52.110;5.548;2023-04-15T10:42:10;5.47;;;3.72;;
24084;SDS011;12268;52.110;5.548;2023-04-15T10:44:37;8.77;;;3.50;;
24084;SDS011;12268;52.110;5.548;2023-04-15T10:47:05;5.50;;;3.88;;
24084;SDS011;12268;52.110;5.548;2023-04-15T10:49:41;5.43;;;3.70;;
24084;SDS011;12268;52.110;5.548;2023-04-15T10:52:11;7.07;;;4.15;;
24084;SDS011;12268;52.110;5.548;2023-04-15T10:54:39;4.82;;;3.38;;
24084;SDS011;12268;52.110;5.548;2023-04-15T10:59:30;7.63;;;3.85;;
24084;SDS011;12268;52.110;5.548;2023-04-15T11:02:01;5.68;;;3.72;;
24084;SDS011;12268;52.110;5.548;2023-04-15T11:12:54;7.32;;;3.60;;
24084;SDS011;12268;52.110;5.548;2023-04-15T11:17:58;5.93;;;3.80;;
24084;SDS011;12268;52.110;5.548;2023-04-15T11:20:24;7.88;;;3.65;;
24084;SDS011;12268;52.110;5.548;2023-04-15T11:22:50;6.43;;;3.20;;
24084;SDS011;12268;52.110;5.548;2023-04-15T11:25:21;5.72;;;3.15;;
24084;SDS011;12268;52.110;5.548;2023-04-15T11:27:51;4.80;;;2.90;;
24084;SDS011;12268;52.110;5.548;2023-04-15T11:30:22;7.90;;;3.40;;
24084;SDS011;12268;52.110;5.548;2023-04-15T11:32:50;6.30;;;3.25;;
24084;SDS011;12268;52.110;5.548;2023-04-15T11:35:17;8.32;;;3.65;;
24084;SDS011;12268;52.110;5.548;2023-04-15T11:37:43;4.75;;;3.45;;
24084;SDS011;12268;52.110;5.548;2023-04-15T11:40:10;6.10;;;3.15;;
24084;SDS011;12268;52.110;5.548;2023-04-15T11:42:36;5.10;;;3.10;;
24084;SDS011;12268;52.110;5.548;2023-04-15T11:45:11;7.15;;;3.38;;
24084;SDS011;12268;52.110;5.548;2023-04-15T11:47:39;5.72;;;3.10;;
24084;SDS011;12268;52.110;5.548;2023-04-15T11:50:18;3.97;;;2.50;;
24084;SDS011;12268;52.110;5.548;2023-04-15T11:52:57;5.03;;;2.90;;
24084;SDS011;12268;52.110;5.548;2023-04-15T11:55:25;6.68;;;3.33;;
24084;SDS011;12268;52.110;5.548;2023-04-15T12:00:53;5.65;;;3.40;;
24084;SDS011;12268;52.110;5.548;2023-04-15T12:03:22;5.63;;;3.10;;
24084;SDS011;12268;52.110;5.548;2023-04-15T12:13:58;3.63;;;2.33;;
24084;SDS011;12268;52.110;5.548;2023-04-15T12:16:28;4.97;;;2.13;;
24084;SDS011;12268;52.110;5.548;2023-04-15T12:18:55;5.38;;;2.13;;
24084;SDS011;12268;52.110;5.548;2023-04-15T12:21:22;3.47;;;2.08;;
24084;SDS011;12268;52.110;5.548;2023-04-15T12:23:56;4.57;;;1.83;;
24084;SDS011;12268;52.110;5.548;2023-04-15T12:26:26;4.70;;;2.10;;
24084;SDS011;12268;52.110;5.548;2023-04-15T12:28:59;3.00;;;1.92;;
24084;SDS011;12268;52.110;5.548;2023-04-15T12:31:26;5.63;;;2.10;;
24084;SDS011;12268;52.110;5.548;2023-04-15T12:33:54;5.13;;;1.90;;
24084;SDS011;12268;52.110;5.548;2023-04-15T12:36:20;4.80;;;2.13;;
24084;SDS011;12268;52.110;5.548;2023-04-15T12:38:46;4.05;;;1.90;;
24084;SDS011;12268;52.110;5.548;2023-04-15T12:41:12;3.40;;;2.50;;
24084;SDS011;12268;52.110;5.548;2023-04-15T12:43:37;3.28;;;1.90;;
24084;SDS011;12268;52.110;5.548;2023-04-15T12:46:03;4.18;;;2.10;;
24084;SDS011;12268;52.110;5.548;2023-04-15T12:48:29;2.75;;;1.85;;
24084;SDS011;12268;52.110;5.548;2023-04-15T12:50:54;3.67;;;1.80;;
24084;SDS011;12268;52.110;5.548;2023-04-15T12:53:20;4.57;;;2.17;;
24084;SDS011;12268;52.110;5.548;2023-04-15T12:55:46;3.17;;;1.95;;
24084;SDS011;12268;52.110;5.548;2023-04-15T12:58:12;3.20;;;1.90;;
24084;SDS011;12268;52.110;5.548;2023-04-15T13:00:37;5.93;;;2.15;;
24084;SDS011;12268;52.110;5.548;2023-04-15T13:03:03;4.00;;;1.77;;
24084;SDS011;12268;52.110;5.548;2023-04-15T13:05:29;3.05;;;1.90;;
24084;SDS011;12268;52.110;5.548;2023-04-15T13:07:54;4.15;;;2.00;;
24084;SDS011;12268;52.110;5.548;2023-04-15T13:10:20;4.55;;;2.00;;
24084;SDS011;12268;52.110;5.548;2023-04-15T13:12:47;5.22;;;2.10;;
24084;SDS011;12268;52.110;5.548;2023-04-15T13:15:14;3.33;;;1.60;;
24084;SDS011;12268;52.110;5.548;2023-04-15T13:17:43;5.10;;;1.98;;
24084;SDS011;12268;52.110;5.548;2023-04-15T13:20:09;6.88;;;2.50;;
24084;SDS011;12268;52.110;5.548;2023-04-15T13:22:34;5.72;;;1.80;;
24084;SDS011;12268;52.110;5.548;2023-04-15T13:25:00;2.38;;;1.38;;
24084;SDS011;12268;52.110;5.548;2023-04-15T13:27:25;3.58;;;1.80;;
24084;SDS011;12268;52.110;5.548;2023-04-15T13:29:53;4.53;;;1.65;;
24084;SDS011;12268;52.110;5.548;2023-04-15T13:32:18;2.38;;;1.70;;
24084;SDS011;12268;52.110;5.548;2023-04-15T13:34:44;3.50;;;1.60;;
24084;SDS011;12268;52.110;5.548;2023-04-15T13:37:09;3.40;;;1.70;;
24084;SDS011;12268;52.110;5.548;2023-04-15T13:39:35;3.38;;;1.90;;
24084;SDS011;12268;52.110;5.548;2023-04-15T13:42:00;4.43;;;1.85;;
24084;SDS011;12268;52.110;5.548;2023-04-15T13:44:27;2.78;;;1.55;;
24084;SDS011;12268;52.110;5.548;2023-04-15T13:46:52;3.60;;;1.70;;
24084;SDS011;12268;52.110;5.548;2023-04-15T13:49:18;3.58;;;2.00;;
24084;SDS011;12268;52.110;5.548;2023-04-15T13:51:43;3.30;;;1.60;;
24084;SDS011;12268;52.110;5.548;2023-04-15T13:54:09;5.38;;;1.85;;
24084;SDS011;12268;52.110;5.548;2023-04-15T13:56:35;3.88;;;1.95;;
24084;SDS011;12268;52.110;5.548;2023-04-15T13:59:00;4.93;;;1.42;;
24084;SDS011;12268;52.110;5.548;2023-04-15T14:01:27;2.78;;;1.52;;
24084;SDS011;12268;52.110;5.548;2023-04-15T14:03:53;2.90;;;1.80;;
24084;SDS011;12268;52.110;5.548;2023-04-15T14:06:18;3.28;;;1.98;;
24084;SDS011;12268;52.110;5.548;2023-04-15T14:08:44;2.83;;;1.85;;
24084;SDS011;12268;52.110;5.548;2023-04-15T14:11:10;3.00;;;1.75;;
24084;SDS011;12268;52.110;5.548;2023-04-15T14:13:35;5.35;;;2.30;;
24084;SDS011;12268;52.110;5.548;2023-04-15T14:16:01;4.25;;;2.00;;
24084;SDS011;12268;52.110;5.548;2023-04-15T14:18:27;2.65;;;1.70;;
24084;SDS011;12268;52.110;5.548;2023-04-15T14:20:53;4.88;;;2.10;;
24084;SDS011;12268;52.110;5.548;2023-04-15T14:23:19;6.40;;;2.20;;
24084;SDS011;12268;52.110;5.548;2023-04-15T14:25:45;3.70;;;1.70;;
24084;SDS011;12268;52.110;5.548;2023-04-15T14:28:10;4.68;;;2.03;;
24084;SDS011;12268;52.110;5.548;2023-04-15T14:30:36;4.18;;;1.92;;
24084;SDS011;12268;52.110;5.548;2023-04-15T14:33:01;5.45;;;2.40;;
24084;SDS011;12268;52.110;5.548;2023-04-15T14:35:27;3.70;;;1.95;;
24084;SDS011;12268;52.110;5.548;2023-04-15T14:37:53;4.47;;;2.20;;
24084;SDS011;12268;52.110;5.548;2023-04-15T14:40:19;4.55;;;2.10;;
24084;SDS011;12268;52.110;5.548;2023-04-15T14:42:45;3.65;;;2.17;;
24084;SDS011;12268;52.110;5.548;2023-04-15T14:45:10;4.13;;;2.33;;
24084;SDS011;12268;52.110;5.548;2023-04-15T14:47:36;7.10;;;2.35;;
24084;SDS011;12268;52.110;5.548;2023-04-15T14:50:02;5.47;;;2.15;;
24084;SDS011;12268;52.110;5.548;2023-04-15T14:52:28;5.43;;;2.65;;
24084;SDS011;12268;52.110;5.548;2023-04-15T14:54:56;6.40;;;2.88;;
24084;SDS011;12268;52.110;5.548;2023-04-15T14:57:21;6.13;;;2.60;;
24084;SDS011;12268;52.110;5.548;2023-04-15T14:59:47;7.22;;;2.50;;
24084;SDS011;12268;52.110;5.548;2023-04-15T15:02:12;6.97;;;2.22;;
24084;SDS011;12268;52.110;5.548;2023-04-15T15:04:38;2.67;;;1.60;;